sensor_id;sensor_type;location;lat;lon;timestamp;temperature;humidity
14604;DHT22;7388;51.078;13.740;2023-09-07T00:01:49;21.80;46.50
14604;DHT22;7388;51.078;13.740;2023-09-07T00:04:18;21.80;47.10
14604;DHT22;7388;51.078;13.740;2023-09-07T00:06:44;21.80;46.60
14604;DHT22;7388;51.078;13.740;2023-09-07T00:09:10;21.80;46.40
14604;DHT22;7388;51.078;13.740;2023-09-07T00:11:37;21.80;46.30
14604;DHT22;7388;51.078;13.740;2023-09-07T00:14:04;21.70;46.70
14604;DHT22;7388;51.078;13.740;2023-09-07T00:16:33;21.70;46.80
14604;DHT22;7388;51.078;13.740;2023-09-07T00:19:04;21.70;46.50
14604;DHT22;7388;51.078;13.740;2023-09-07T00:21:30;21.70;46.60
14604;DHT22;7388;51.078;13.740;2023-09-07T00:23:55;21.70;46.70
14604;DHT22;7388;51.078;13.740;2023-09-07T00:26:21;21.60;46.90
14604;DHT22;7388;51.078;13.740;2023-09-07T00:28:47;21.60;46.60
14604;DHT22;7388;51.078;13.740;2023-09-07T00:31:13;21.50;46.60
14604;DHT22;7388;51.078;13.740;2023-09-07T00:33:39;21.50;46.90
14604;DHT22;7388;51.078;13.740;2023-09-07T00:36:05;21.50;46.40
14604;DHT22;7388;51.078;13.740;2023-09-07T00:38:31;21.60;46.40
14604;DHT22;7388;51.078;13.740;2023-09-07T00:40:57;21.50;46.60
14604;DHT22;7388;51.078;13.740;2023-09-07T00:43:22;21.40;46.60
14604;DHT22;7388;51.078;13.740;2023-09-07T00:45:48;21.40;46.80
14604;DHT22;7388;51.078;13.740;2023-09-07T00:48:15;21.40;46.70
14604;DHT22;7388;51.078;13.740;2023-09-07T00:50:44;21.30;46.60
14604;DHT22;7388;51.078;13.740;2023-09-07T00:53:14;21.30;47.00
14604;DHT22;7388;51.078;13.740;2023-09-07T00:55:40;21.30;47.00
14604;DHT22;7388;51.078;13.740;2023-09-07T00:58:06;21.20;46.70
14604;DHT22;7388;51.078;13.740;2023-09-07T01:00:32;21.20;46.80
14604;DHT22;7388;51.078;13.740;2023-09-07T01:02:59;21.20;47.00
14604;DHT22;7388;51.078;13.740;2023-09-07T01:05:46;21.20;47.00
14604;DHT22;7388;51.078;13.740;2023-09-07T01:08:54;21.10;46.70
14604;DHT22;7388;51.078;13.740;2023-09-07T01:11:15;21.00;46.80
14604;DHT22;7388;51.078;13.740;2023-09-07T01:13:41;21.10;47.10
14604;DHT22;7388;51.078;13.740;2023-09-07T01:16:13;21.00;47.10
14604;DHT22;7388;51.078;13.740;2023-09-07T01:18:39;21.00;47.10
14604;DHT22;7388;51.078;13.740;2023-09-07T01:21:09;21.00;47.20
14604;DHT22;7388;51.078;13.740;2023-09-07T01:23:38;21.00;47.10
14604;DHT22;7388;51.078;13.740;2023-09-07T01:26:07;20.90;46.90
14604;DHT22;7388;51.078;13.740;2023-09-07T01:28:37;20.90;46.80
14604;DHT22;7388;51.078;13.740;2023-09-07T01:31:03;20.90;46.80
14604;DHT22;7388;51.078;13.740;2023-09-07T01:33:29;20.80;46.70
14604;DHT22;7388;51.078;13.740;2023-09-07T01:35:55;20.80;47.10
14604;DHT22;7388;51.078;13.740;2023-09-07T01:38:21;20.80;46.80
14604;DHT22;7388;51.078;13.740;2023-09-07T01:40:47;20.70;46.80
14604;DHT22;7388;51.078;13.740;2023-09-07T01:43:12;20.70;46.80
14604;DHT22;7388;51.078;13.740;2023-09-07T01:45:38;20.60;46.80
14604;DHT22;7388;51.078;13.740;2023-09-07T01:48:08;20.60;46.80
14604;DHT22;7388;51.078;13.740;2023-09-07T01:50:36;20.60;46.90
14604;DHT22;7388;51.078;13.740;2023-09-07T01:53:02;20.60;47.00
14604;DHT22;7388;51.078;13.740;2023-09-07T01:55:33;20.60;47.10
14604;DHT22;7388;51.078;13.740;2023-09-07T01:57:59;20.60;47.10
14604;DHT22;7388;51.078;13.740;2023-09-07T02:00:24;20.60;47.10
14604;DHT22;7388;51.078;13.740;2023-09-07T02:02:50;20.60;47.20
14604;DHT22;7388;51.078;13.740;2023-09-07T02:05:16;20.50;47.10
14604;DHT22;7388;51.078;13.740;2023-09-07T02:07:42;20.60;47.20
14604;DHT22;7388;51.078;13.740;2023-09-07T02:10:09;20.50;47.00
14604;DHT22;7388;51.078;13.740;2023-09-07T02:12:34;20.50;47.10
14604;DHT22;7388;51.078;13.740;2023-09-07T02:15:03;20.50;47.10
14604;DHT22;7388;51.078;13.740;2023-09-07T02:17:29;20.50;46.70
14604;DHT22;7388;51.078;13.740;2023-09-07T02:19:55;20.60;46.80
14604;DHT22;7388;51.078;13.740;2023-09-07T02:22:21;20.50;46.90
14604;DHT22;7388;51.078;13.740;2023-09-07T02:24:47;20.50;46.80
14604;DHT22;7388;51.078;13.740;2023-09-07T02:27:13;20.40;46.90
14604;DHT22;7388;51.078;13.740;2023-09-07T02:29:38;20.40;47.00
14604;DHT22;7388;51.078;13.740;2023-09-07T02:32:05;20.40;47.20
14604;DHT22;7388;51.078;13.740;2023-09-07T02:34:30;20.40;47.10
14604;DHT22;7388;51.078;13.740;2023-09-07T02:36:57;20.30;47.10
14604;DHT22;7388;51.078;13.740;2023-09-07T02:39:23;20.30;47.10
14604;DHT22;7388;51.078;13.740;2023-09-07T02:41:52;20.30;47.20
14604;DHT22;7388;51.078;13.740;2023-09-07T02:44:18;20.30;47.10
14604;DHT22;7388;51.078;13.740;2023-09-07T02:46:43;20.30;47.20
14604;DHT22;7388;51.078;13.740;2023-09-07T02:49:09;20.30;47.10
14604;DHT22;7388;51.078;13.740;2023-09-07T02:51:35;20.20;46.90
14604;DHT22;7388;51.078;13.740;2023-09-07T02:54:02;20.20;47.00
14604;DHT22;7388;51.078;13.740;2023-09-07T02:56:28;20.20;47.40
14604;DHT22;7388;51.078;13.740;2023-09-07T02:58:54;20.20;47.30
14604;DHT22;7388;51.078;13.740;2023-09-07T03:01:20;20.20;47.10
14604;DHT22;7388;51.078;13.740;2023-09-07T03:03:46;20.20;47.20
14604;DHT22;7388;51.078;13.740;2023-09-07T03:06:13;20.20;47.00
14604;DHT22;7388;51.078;13.740;2023-09-07T03:08:43;20.20;46.90
14604;DHT22;7388;51.078;13.740;2023-09-07T03:11:09;20.20;46.70
14604;DHT22;7388;51.078;13.740;2023-09-07T03:13:35;20.20;46.70
14604;DHT22;7388;51.078;13.740;2023-09-07T03:16:02;20.10;46.80
14604;DHT22;7388;51.078;13.740;2023-09-07T03:18:28;20.10;46.80
14604;DHT22;7388;51.078;13.740;2023-09-07T03:20:55;20.00;47.20
14604;DHT22;7388;51.078;13.740;2023-09-07T03:23:22;20.00;47.00
14604;DHT22;7388;51.078;13.740;2023-09-07T03:25:48;20.00;46.90
14604;DHT22;7388;51.078;13.740;2023-09-07T03:28:14;20.00;46.90
14604;DHT22;7388;51.078;13.740;2023-09-07T03:30:40;20.00;46.90
14604;DHT22;7388;51.078;13.740;2023-09-07T03:33:06;19.90;47.10
14604;DHT22;7388;51.078;13.740;2023-09-07T03:35:32;19.90;47.30
14604;DHT22;7388;51.078;13.740;2023-09-07T03:37:58;19.90;46.90
14604;DHT22;7388;51.078;13.740;2023-09-07T03:40:24;19.90;47.00
14604;DHT22;7388;51.078;13.740;2023-09-07T03:42:50;19.80;46.80
14604;DHT22;7388;51.078;13.740;2023-09-07T03:45:16;19.80;47.00
14604;DHT22;7388;51.078;13.740;2023-09-07T03:47:42;19.80;47.00
14604;DHT22;7388;51.078;13.740;2023-09-07T03:50:08;19.80;47.20
14604;DHT22;7388;51.078;13.740;2023-09-07T03:52:34;19.80;47.20
14604;DHT22;7388;51.078;13.740;2023-09-07T03:55:00;19.70;47.30
14604;DHT22;7388;51.078;13.740;2023-09-07T03:57:27;19.70;47.30
14604;DHT22;7388;51.078;13.740;2023-09-07T03:59:53;19.70;46.90
14604;DHT22;7388;51.078;13.740;2023-09-07T04:02:21;19.70;47.00
14604;DHT22;7388;51.078;13.740;2023-09-07T04:04:50;19.70;47.00
14604;DHT22;7388;51.078;13.740;2023-09-07T04:07:16;19.60;46.90
14604;DHT22;7388;51.078;13.740;2023-09-07T04:09:43;19.60;47.10
14604;DHT22;7388;51.078;13.740;2023-09-07T04:12:10;19.60;47.00
14604;DHT22;7388;51.078;13.740;2023-09-07T04:14:36;19.60;47.10
14604;DHT22;7388;51.078;13.740;2023-09-07T04:17:02;19.60;47.10
14604;DHT22;7388;51.078;13.740;2023-09-07T04:19:28;19.60;47.30
14604;DHT22;7388;51.078;13.740;2023-09-07T04:21:54;19.50;47.60
14604;DHT22;7388;51.078;13.740;2023-09-07T04:24:20;19.50;47.30
14604;DHT22;7388;51.078;13.740;2023-09-07T04:26:47;19.50;47.80
14604;DHT22;7388;51.078;13.740;2023-09-07T04:29:13;19.50;47.40
14604;DHT22;7388;51.078;13.740;2023-09-07T04:31:38;19.50;47.20
14604;DHT22;7388;51.078;13.740;2023-09-07T04:34:04;19.50;47.00
14604;DHT22;7388;51.078;13.740;2023-09-07T04:36:30;19.50;46.90
14604;DHT22;7388;51.078;13.740;2023-09-07T04:38:56;19.50;47.30
14604;DHT22;7388;51.078;13.740;2023-09-07T04:41:21;19.50;46.90
14604;DHT22;7388;51.078;13.740;2023-09-07T04:43:47;19.50;47.00
14604;DHT22;7388;51.078;13.740;2023-09-07T04:46:13;19.50;47.10
14604;DHT22;7388;51.078;13.740;2023-09-07T04:48:40;19.40;47.10
14604;DHT22;7388;51.078;13.740;2023-09-07T04:51:08;19.40;47.10
14604;DHT22;7388;51.078;13.740;2023-09-07T04:53:35;19.30;47.50
14604;DHT22;7388;51.078;13.740;2023-09-07T04:56:02;19.30;47.70
14604;DHT22;7388;51.078;13.740;2023-09-07T04:58:28;19.30;47.70
14604;DHT22;7388;51.078;13.740;2023-09-07T05:01:00;19.30;47.80
14604;DHT22;7388;51.078;13.740;2023-09-07T05:03:26;19.40;47.70
14604;DHT22;7388;51.078;13.740;2023-09-07T05:05:53;19.40;47.90
14604;DHT22;7388;51.078;13.740;2023-09-07T05:08:19;19.40;47.80
14604;DHT22;7388;51.078;13.740;2023-09-07T05:10:45;19.50;48.00
14604;DHT22;7388;51.078;13.740;2023-09-07T05:13:11;19.60;47.60
14604;DHT22;7388;51.078;13.740;2023-09-07T05:15:37;19.60;47.60
14604;DHT22;7388;51.078;13.740;2023-09-07T05:18:02;19.70;47.80
14604;DHT22;7388;51.078;13.740;2023-09-07T05:20:31;19.80;47.70
14604;DHT22;7388;51.078;13.740;2023-09-07T05:22:57;19.80;47.90
14604;DHT22;7388;51.078;13.740;2023-09-07T05:25:24;19.90;47.80
14604;DHT22;7388;51.078;13.740;2023-09-07T05:27:51;20.00;47.80
14604;DHT22;7388;51.078;13.740;2023-09-07T05:30:16;20.00;47.70
14604;DHT22;7388;51.078;13.740;2023-09-07T05:32:42;20.10;47.80
14604;DHT22;7388;51.078;13.740;2023-09-07T05:35:08;20.20;47.50
14604;DHT22;7388;51.078;13.740;2023-09-07T05:37:36;20.30;47.90
14604;DHT22;7388;51.078;13.740;2023-09-07T05:40:01;20.30;47.80
14604;DHT22;7388;51.078;13.740;2023-09-07T05:42:29;20.40;47.70
14604;DHT22;7388;51.078;13.740;2023-09-07T05:44:54;20.50;47.80
14604;DHT22;7388;51.078;13.740;2023-09-07T05:47:20;20.60;47.80
14604;DHT22;7388;51.078;13.740;2023-09-07T05:49:46;20.70;47.70
14604;DHT22;7388;51.078;13.740;2023-09-07T05:52:12;20.80;47.50
14604;DHT22;7388;51.078;13.740;2023-09-07T05:54:37;20.90;47.70
14604;DHT22;7388;51.078;13.740;2023-09-07T05:57:03;20.90;47.60
14604;DHT22;7388;51.078;13.740;2023-09-07T05:59:29;21.00;47.70
14604;DHT22;7388;51.078;13.740;2023-09-07T06:01:55;21.10;47.60
14604;DHT22;7388;51.078;13.740;2023-09-07T06:04:20;21.20;47.40
14604;DHT22;7388;51.078;13.740;2023-09-07T06:06:47;21.30;47.40
14604;DHT22;7388;51.078;13.740;2023-09-07T06:09:13;21.40;47.20
14604;DHT22;7388;51.078;13.740;2023-09-07T06:11:39;21.50;47.10
14604;DHT22;7388;51.078;13.740;2023-09-07T06:14:04;21.60;47.00
14604;DHT22;7388;51.078;13.740;2023-09-07T06:16:30;21.70;47.20
14604;DHT22;7388;51.078;13.740;2023-09-07T06:18:56;21.80;46.80
14604;DHT22;7388;51.078;13.740;2023-09-07T06:21:21;21.80;46.60
14604;DHT22;7388;51.078;13.740;2023-09-07T06:23:47;21.90;46.70
14604;DHT22;7388;51.078;13.740;2023-09-07T06:26:13;21.90;46.30
14604;DHT22;7388;51.078;13.740;2023-09-07T06:28:39;22.00;46.40
14604;DHT22;7388;51.078;13.740;2023-09-07T06:31:05;22.10;46.50
14604;DHT22;7388;51.078;13.740;2023-09-07T06:33:31;22.20;46.30
14604;DHT22;7388;51.078;13.740;2023-09-07T06:35:57;22.20;46.30
14604;DHT22;7388;51.078;13.740;2023-09-07T06:38:26;22.30;46.10
14604;DHT22;7388;51.078;13.740;2023-09-07T06:40:52;22.40;46.10
14604;DHT22;7388;51.078;13.740;2023-09-07T06:43:18;22.50;46.20
14604;DHT22;7388;51.078;13.740;2023-09-07T06:45:44;22.50;46.10
14604;DHT22;7388;51.078;13.740;2023-09-07T06:48:10;22.60;45.80
14604;DHT22;7388;51.078;13.740;2023-09-07T06:50:36;22.80;45.70
14604;DHT22;7388;51.078;13.740;2023-09-07T06:53:02;22.90;45.80
14604;DHT22;7388;51.078;13.740;2023-09-07T06:55:28;23.00;45.70
14604;DHT22;7388;51.078;13.740;2023-09-07T06:57:54;23.10;45.40
14604;DHT22;7388;51.078;13.740;2023-09-07T07:00:21;23.20;45.20
14604;DHT22;7388;51.078;13.740;2023-09-07T07:02:47;23.30;45.90
14604;DHT22;7388;51.078;13.740;2023-09-07T07:05:13;23.40;45.00
14604;DHT22;7388;51.078;13.740;2023-09-07T07:07:38;23.50;45.10
14604;DHT22;7388;51.078;13.740;2023-09-07T07:10:05;23.60;45.00
14604;DHT22;7388;51.078;13.740;2023-09-07T07:12:31;23.70;44.80
14604;DHT22;7388;51.078;13.740;2023-09-07T07:15:01;23.80;45.00
14604;DHT22;7388;51.078;13.740;2023-09-07T07:17:29;23.90;44.90
14604;DHT22;7388;51.078;13.740;2023-09-07T07:19:55;24.10;44.40
14604;DHT22;7388;51.078;13.740;2023-09-07T07:22:21;24.10;43.70
14604;DHT22;7388;51.078;13.740;2023-09-07T07:24:47;24.20;43.80
14604;DHT22;7388;51.078;13.740;2023-09-07T07:27:12;24.40;43.90
14604;DHT22;7388;51.078;13.740;2023-09-07T07:29:38;24.50;43.70
14604;DHT22;7388;51.078;13.740;2023-09-07T07:32:04;24.70;43.10
14604;DHT22;7388;51.078;13.740;2023-09-07T07:34:31;24.80;42.60
14604;DHT22;7388;51.078;13.740;2023-09-07T07:36:58;24.90;43.30
14604;DHT22;7388;51.078;13.740;2023-09-07T07:42:53;25.20;42.40
14604;DHT22;7388;51.078;13.740;2023-09-07T07:45:19;25.10;42.00
14604;DHT22;7388;51.078;13.740;2023-09-07T07:47:46;25.20;42.70
14604;DHT22;7388;51.078;13.740;2023-09-07T07:50:12;25.40;42.30
14604;DHT22;7388;51.078;13.740;2023-09-07T07:52:37;25.50;41.60
14604;DHT22;7388;51.078;13.740;2023-09-07T07:55:03;25.70;41.60
14604;DHT22;7388;51.078;13.740;2023-09-07T07:57:29;25.90;40.50
14604;DHT22;7388;51.078;13.740;2023-09-07T07:59:56;26.00;40.90
14604;DHT22;7388;51.078;13.740;2023-09-07T08:02:22;26.10;41.70
14604;DHT22;7388;51.078;13.740;2023-09-07T08:04:48;26.20;39.70
14604;DHT22;7388;51.078;13.740;2023-09-07T08:07:14;26.20;39.80
14604;DHT22;7388;51.078;13.740;2023-09-07T08:09:40;26.40;40.60
14604;DHT22;7388;51.078;13.740;2023-09-07T08:12:06;26.50;40.20
14604;DHT22;7388;51.078;13.740;2023-09-07T08:14:32;26.60;40.10
14604;DHT22;7388;51.078;13.740;2023-09-07T08:16:58;26.80;40.60
14604;DHT22;7388;51.078;13.740;2023-09-07T08:19:24;26.90;40.20
14604;DHT22;7388;51.078;13.740;2023-09-07T08:21:50;27.00;40.50
14604;DHT22;7388;51.078;13.740;2023-09-07T08:24:16;27.20;39.60
14604;DHT22;7388;51.078;13.740;2023-09-07T08:26:43;27.30;38.60
14604;DHT22;7388;51.078;13.740;2023-09-07T08:29:09;27.40;39.50
14604;DHT22;7388;51.078;13.740;2023-09-07T08:31:37;27.50;38.70
14604;DHT22;7388;51.078;13.740;2023-09-07T08:34:05;27.50;37.50
14604;DHT22;7388;51.078;13.740;2023-09-07T08:36:32;27.50;38.00
14604;DHT22;7388;51.078;13.740;2023-09-07T08:39:06;27.70;37.50
14604;DHT22;7388;51.078;13.740;2023-09-07T08:41:37;27.70;37.80
14604;DHT22;7388;51.078;13.740;2023-09-07T08:44:10;27.90;37.70
14604;DHT22;7388;51.078;13.740;2023-09-07T08:46:37;28.00;35.70
14604;DHT22;7388;51.078;13.740;2023-09-07T08:49:03;28.00;35.50
14604;DHT22;7388;51.078;13.740;2023-09-07T08:51:30;28.10;36.30
14604;DHT22;7388;51.078;13.740;2023-09-07T08:53:57;28.10;36.60
14604;DHT22;7388;51.078;13.740;2023-09-07T08:56:24;28.20;35.20
14604;DHT22;7388;51.078;13.740;2023-09-07T08:58:50;28.30;35.50
14604;DHT22;7388;51.078;13.740;2023-09-07T09:01:19;28.40;35.70
14604;DHT22;7388;51.078;13.740;2023-09-07T09:03:48;28.40;34.90
14604;DHT22;7388;51.078;13.740;2023-09-07T09:06:17;28.50;35.50
14604;DHT22;7388;51.078;13.740;2023-09-07T09:08:52;28.60;34.30
14604;DHT22;7388;51.078;13.740;2023-09-07T09:11:18;28.70;35.70
14604;DHT22;7388;51.078;13.740;2023-09-07T09:13:45;28.70;34.70
14604;DHT22;7388;51.078;13.740;2023-09-07T09:16:11;28.90;34.70
14604;DHT22;7388;51.078;13.740;2023-09-07T09:18:47;28.90;35.00
14604;DHT22;7388;51.078;13.740;2023-09-07T09:21:14;29.00;34.50
14604;DHT22;7388;51.078;13.740;2023-09-07T09:23:40;29.10;33.60
14604;DHT22;7388;51.078;13.740;2023-09-07T09:26:06;29.10;33.80
14604;DHT22;7388;51.078;13.740;2023-09-07T09:28:33;29.20;33.60
14604;DHT22;7388;51.078;13.740;2023-09-07T09:31:00;29.20;34.30
14604;DHT22;7388;51.078;13.740;2023-09-07T09:33:26;29.30;34.30
14604;DHT22;7388;51.078;13.740;2023-09-07T09:35:54;29.40;33.50
14604;DHT22;7388;51.078;13.740;2023-09-07T09:38:20;29.40;34.50
14604;DHT22;7388;51.078;13.740;2023-09-07T09:40:46;29.50;33.80
14604;DHT22;7388;51.078;13.740;2023-09-07T09:43:12;29.60;32.80
14604;DHT22;7388;51.078;13.740;2023-09-07T09:45:39;29.70;33.60
14604;DHT22;7388;51.078;13.740;2023-09-07T09:48:05;29.70;32.80
14604;DHT22;7388;51.078;13.740;2023-09-07T09:50:32;29.70;33.30
14604;DHT22;7388;51.078;13.740;2023-09-07T09:53:07;29.80;32.10
14604;DHT22;7388;51.078;13.740;2023-09-07T09:55:36;29.80;32.10
14604;DHT22;7388;51.078;13.740;2023-09-07T09:58:04;29.80;33.10
14604;DHT22;7388;51.078;13.740;2023-09-07T10:00:30;29.90;32.00
14604;DHT22;7388;51.078;13.740;2023-09-07T10:03:04;30.00;33.30
14604;DHT22;7388;51.078;13.740;2023-09-07T10:05:31;30.00;32.60
14604;DHT22;7388;51.078;13.740;2023-09-07T10:08:07;30.10;33.20
14604;DHT22;7388;51.078;13.740;2023-09-07T10:10:35;30.10;33.20
14604;DHT22;7388;51.078;13.740;2023-09-07T10:13:01;30.20;31.70
14604;DHT22;7388;51.078;13.740;2023-09-07T10:15:28;30.20;32.90
14604;DHT22;7388;51.078;13.740;2023-09-07T10:18:11;30.30;32.50
14604;DHT22;7388;51.078;13.740;2023-09-07T10:20:50;30.40;32.20
14604;DHT22;7388;51.078;13.740;2023-09-07T10:23:17;30.40;31.80
14604;DHT22;7388;51.078;13.740;2023-09-07T10:25:42;30.50;31.40
14604;DHT22;7388;51.078;13.740;2023-09-07T10:30:45;30.60;30.10
14604;DHT22;7388;51.078;13.740;2023-09-07T10:33:22;30.60;30.10
14604;DHT22;7388;51.078;13.740;2023-09-07T10:35:48;30.70;30.80
14604;DHT22;7388;51.078;13.740;2023-09-07T10:38:14;30.80;31.30
14604;DHT22;7388;51.078;13.740;2023-09-07T10:40:43;30.90;30.30
14604;DHT22;7388;51.078;13.740;2023-09-07T10:43:09;30.80;30.70
14604;DHT22;7388;51.078;13.740;2023-09-07T10:45:35;30.90;29.80
14604;DHT22;7388;51.078;13.740;2023-09-07T10:48:02;31.00;28.60
14604;DHT22;7388;51.078;13.740;2023-09-07T10:50:29;31.00;27.70
14604;DHT22;7388;51.078;13.740;2023-09-07T10:52:55;31.10;29.70
14604;DHT22;7388;51.078;13.740;2023-09-07T10:55:21;31.20;28.10
14604;DHT22;7388;51.078;13.740;2023-09-07T10:57:47;31.30;28.60
14604;DHT22;7388;51.078;13.740;2023-09-07T11:00:14;31.30;29.30
14604;DHT22;7388;51.078;13.740;2023-09-07T11:02:42;31.40;29.50
14604;DHT22;7388;51.078;13.740;2023-09-07T11:05:08;31.40;29.60
14604;DHT22;7388;51.078;13.740;2023-09-07T11:07:35;31.40;28.90
14604;DHT22;7388;51.078;13.740;2023-09-07T11:10:01;31.50;27.80
14604;DHT22;7388;51.078;13.740;2023-09-07T11:12:36;31.50;26.20
14604;DHT22;7388;51.078;13.740;2023-09-07T11:15:03;31.40;26.50
14604;DHT22;7388;51.078;13.740;2023-09-07T11:17:29;31.40;25.60
14604;DHT22;7388;51.078;13.740;2023-09-07T11:19:55;31.40;28.50
14604;DHT22;7388;51.078;13.740;2023-09-07T11:22:22;31.50;27.90
14604;DHT22;7388;51.078;13.740;2023-09-07T11:24:48;31.60;28.40
14604;DHT22;7388;51.078;13.740;2023-09-07T11:27:17;31.70;26.40
14604;DHT22;7388;51.078;13.740;2023-09-07T11:29:50;31.80;26.70
14604;DHT22;7388;51.078;13.740;2023-09-07T11:32:16;31.80;27.30
14604;DHT22;7388;51.078;13.740;2023-09-07T11:34:55;31.80;26.20
14604;DHT22;7388;51.078;13.740;2023-09-07T11:37:25;31.80;27.00
14604;DHT22;7388;51.078;13.740;2023-09-07T11:39:51;31.70;27.10
14604;DHT22;7388;51.078;13.740;2023-09-07T11:42:17;31.80;26.80
14604;DHT22;7388;51.078;13.740;2023-09-07T11:44:42;31.90;26.80
14604;DHT22;7388;51.078;13.740;2023-09-07T11:47:08;31.90;27.30
14604;DHT22;7388;51.078;13.740;2023-09-07T11:49:34;32.00;26.90
14604;DHT22;7388;51.078;13.740;2023-09-07T11:52:00;32.10;26.30
14604;DHT22;7388;51.078;13.740;2023-09-07T11:54:26;32.10;25.90
14604;DHT22;7388;51.078;13.740;2023-09-07T11:56:52;32.00;26.70
14604;DHT22;7388;51.078;13.740;2023-09-07T11:59:18;32.10;26.50
14604;DHT22;7388;51.078;13.740;2023-09-07T12:01:44;32.10;27.50
14604;DHT22;7388;51.078;13.740;2023-09-07T12:04:10;32.10;27.30
14604;DHT22;7388;51.078;13.740;2023-09-07T12:06:36;32.10;27.40
14604;DHT22;7388;51.078;13.740;2023-09-07T12:09:06;32.20;28.60
14604;DHT22;7388;51.078;13.740;2023-09-07T12:11:32;32.30;27.80
14604;DHT22;7388;51.078;13.740;2023-09-07T12:13:59;32.30;26.00
14604;DHT22;7388;51.078;13.740;2023-09-07T12:16:28;32.40;27.10
14604;DHT22;7388;51.078;13.740;2023-09-07T12:18:54;32.50;27.90
14604;DHT22;7388;51.078;13.740;2023-09-07T12:21:20;32.60;27.40
14604;DHT22;7388;51.078;13.740;2023-09-07T12:23:46;32.70;27.70
14604;DHT22;7388;51.078;13.740;2023-09-07T12:26:13;32.80;27.70
14604;DHT22;7388;51.078;13.740;2023-09-07T12:28:40;32.80;26.50
14604;DHT22;7388;51.078;13.740;2023-09-07T12:31:05;32.80;26.70
14604;DHT22;7388;51.078;13.740;2023-09-07T12:33:31;32.90;26.80
14604;DHT22;7388;51.078;13.740;2023-09-07T12:35:58;32.90;27.00
14604;DHT22;7388;51.078;13.740;2023-09-07T12:38:24;32.90;26.90
14604;DHT22;7388;51.078;13.740;2023-09-07T12:40:54;32.90;26.60
14604;DHT22;7388;51.078;13.740;2023-09-07T12:43:19;32.80;26.70
14604;DHT22;7388;51.078;13.740;2023-09-07T12:45:46;32.80;27.10
14604;DHT22;7388;51.078;13.740;2023-09-07T12:48:12;32.80;26.20
14604;DHT22;7388;51.078;13.740;2023-09-07T12:50:38;32.90;26.40
14604;DHT22;7388;51.078;13.740;2023-09-07T12:53:04;32.90;27.20
14604;DHT22;7388;51.078;13.740;2023-09-07T12:55:30;33.00;27.40
14604;DHT22;7388;51.078;13.740;2023-09-07T12:57:56;33.00;26.80
14604;DHT22;7388;51.078;13.740;2023-09-07T13:00:22;33.10;26.90
14604;DHT22;7388;51.078;13.740;2023-09-07T13:02:47;33.10;25.90
14604;DHT22;7388;51.078;13.740;2023-09-07T13:05:13;33.20;27.50
14604;DHT22;7388;51.078;13.740;2023-09-07T13:07:39;33.30;26.50
14604;DHT22;7388;51.078;13.740;2023-09-07T13:10:06;33.40;25.40
14604;DHT22;7388;51.078;13.740;2023-09-07T13:12:32;33.40;25.90
14604;DHT22;7388;51.078;13.740;2023-09-07T13:15:01;33.40;24.60
14604;DHT22;7388;51.078;13.740;2023-09-07T13:17:26;33.40;24.10
14604;DHT22;7388;51.078;13.740;2023-09-07T13:19:52;33.40;24.90
14604;DHT22;7388;51.078;13.740;2023-09-07T13:22:18;33.30;24.70
14604;DHT22;7388;51.078;13.740;2023-09-07T13:24:43;33.30;24.90
14604;DHT22;7388;51.078;13.740;2023-09-07T13:27:09;33.40;24.70
14604;DHT22;7388;51.078;13.740;2023-09-07T13:29:36;33.50;24.10
14604;DHT22;7388;51.078;13.740;2023-09-07T13:32:03;33.50;24.60
14604;DHT22;7388;51.078;13.740;2023-09-07T13:34:28;33.60;24.10
14604;DHT22;7388;51.078;13.740;2023-09-07T13:36:55;33.60;24.60
14604;DHT22;7388;51.078;13.740;2023-09-07T13:39:21;33.50;24.80
14604;DHT22;7388;51.078;13.740;2023-09-07T13:41:47;33.70;25.20
14604;DHT22;7388;51.078;13.740;2023-09-07T13:44:16;33.80;24.40
14604;DHT22;7388;51.078;13.740;2023-09-07T13:46:43;33.80;25.00
14604;DHT22;7388;51.078;13.740;2023-09-07T13:49:10;33.70;24.40
14604;DHT22;7388;51.078;13.740;2023-09-07T13:51:35;33.80;24.10
14604;DHT22;7388;51.078;13.740;2023-09-07T13:54:10;33.90;24.70
14604;DHT22;7388;51.078;13.740;2023-09-07T13:56:36;33.90;23.90
14604;DHT22;7388;51.078;13.740;2023-09-07T13:59:02;33.90;24.70
14604;DHT22;7388;51.078;13.740;2023-09-07T14:01:27;33.80;24.60
14604;DHT22;7388;51.078;13.740;2023-09-07T14:03:53;33.70;24.30
14604;DHT22;7388;51.078;13.740;2023-09-07T14:06:19;33.70;23.60
14604;DHT22;7388;51.078;13.740;2023-09-07T14:08:48;33.70;24.60
14604;DHT22;7388;51.078;13.740;2023-09-07T14:11:14;33.80;24.30
14604;DHT22;7388;51.078;13.740;2023-09-07T14:13:40;33.70;23.20
14604;DHT22;7388;51.078;13.740;2023-09-07T14:16:05;33.80;23.20
14604;DHT22;7388;51.078;13.740;2023-09-07T14:18:32;33.90;24.00
14604;DHT22;7388;51.078;13.740;2023-09-07T14:20:58;33.90;23.40
14604;DHT22;7388;51.078;13.740;2023-09-07T14:23:26;33.90;22.70
14604;DHT22;7388;51.078;13.740;2023-09-07T14:25:53;33.80;23.90
14604;DHT22;7388;51.078;13.740;2023-09-07T14:28:18;33.80;23.90
14604;DHT22;7388;51.078;13.740;2023-09-07T14:30:44;33.90;23.30
14604;DHT22;7388;51.078;13.740;2023-09-07T14:35:38;33.80;21.00
14604;DHT22;7388;51.078;13.740;2023-09-07T14:38:05;33.80;21.80
14604;DHT22;7388;51.078;13.740;2023-09-07T14:40:30;33.80;21.00
14604;DHT22;7388;51.078;13.740;2023-09-07T14:42:57;33.80;22.50
14604;DHT22;7388;51.078;13.740;2023-09-07T14:45:23;33.90;22.80
14604;DHT22;7388;51.078;13.740;2023-09-07T14:47:53;33.90;22.80
14604;DHT22;7388;51.078;13.740;2023-09-07T14:50:19;33.80;23.30
14604;DHT22;7388;51.078;13.740;2023-09-07T14:52:45;33.80;23.70
14604;DHT22;7388;51.078;13.740;2023-09-07T14:55:13;33.00;22.70
14604;DHT22;7388;51.078;13.740;2023-09-07T14:57:40;33.80;22.80
14604;DHT22;7388;51.078;13.740;2023-09-07T15:00:07;33.70;23.90
14604;DHT22;7388;51.078;13.740;2023-09-07T15:02:33;33.70;23.00
14604;DHT22;7388;51.078;13.740;2023-09-07T15:04:59;33.60;22.20
14604;DHT22;7388;51.078;13.740;2023-09-07T15:07:24;33.60;23.60
14604;DHT22;7388;51.078;13.740;2023-09-07T15:09:50;33.60;23.70
14604;DHT22;7388;51.078;13.740;2023-09-07T15:12:16;33.60;23.20
14604;DHT22;7388;51.078;13.740;2023-09-07T15:14:42;33.70;23.10
14604;DHT22;7388;51.078;13.740;2023-09-07T15:17:09;33.60;22.20
14604;DHT22;7388;51.078;13.740;2023-09-07T15:19:35;33.50;22.30
14604;DHT22;7388;51.078;13.740;2023-09-07T15:22:00;33.50;23.40
14604;DHT22;7388;51.078;13.740;2023-09-07T15:24:26;33.30;21.70
14604;DHT22;7388;51.078;13.740;2023-09-07T15:26:52;33.20;22.30
14604;DHT22;7388;51.078;13.740;2023-09-07T15:29:18;33.20;22.50
14604;DHT22;7388;51.078;13.740;2023-09-07T15:31:44;33.10;23.30
14604;DHT22;7388;51.078;13.740;2023-09-07T15:34:10;33.00;24.00
14604;DHT22;7388;51.078;13.740;2023-09-07T15:36:36;32.90;24.20